Terminal Aerodrome Forecast
Issued by NWS Boston, MA

Home | Current Version | Previous Version | Text Only | Print | Product List | Glossary On
Versions: 1 2 3 4 5 6 7 8 9 10 11 12 13 14 15 16 17 18 19 20 21 22 23 24 25 26 27 28 29 30 31 32 33 34 35 36 37 38 39 40 41 42 43 44 45 46 47 48 49 50
000
FTUS41 KBOX 282320
TAFBOS
TAF
KBOS 282320Z 2900/3006 04013G27KT P6SM OVC015
     FM291600 05014G21KT P6SM BKN020
     FM292100 06014G21KT P6SM BKN200
     FM292300 06013G20KT P6SM BKN200
     FM300100 06013G21KT P6SM BKN200=

USA.gov is the U.S. government's official web portal to all federal, state and local government web resources and services.